Siena, Italy

3:02 AM CEST on July 26, 2017 (GMT +0200)
Grosseto Mil | | Change Station

Elev 23 ft 42.75 °N, 11.07 °E | Updated 1 hour ago

Clear
Clear
70 °F
Feels Like 70 °F
N
6
Wind Variable Wind from NNE

Today
High -- | Low -- °F
--% Chance of Precip.
Yesterday
High -- | Low -- °F
Precip. -- in
Pressure 29.68 in
Visibility -9999.0 miles
Clouds
Dew Point 64 °F
Humidity 83%
Rainfall 0.00 in
Snow Depth Not available.
5:58 AM 8:43 PM
Waxing Crescent, 9% visible
METAR LIRS 252355Z 02005KT CAVOK 21/18 Q1005 RMK SKC VIS MIN 9999 WIND THR03 04006KT WIND THR21 04005KT BLU
Pressure 29.68 in
Visibility -9999.0 miles
Clouds
Dew Point 64 °F
Humidity 83%
Rainfall 0.00 in
Snow Depth Not available.
5:58 AM 8:43 PM
Waxing Crescent, 9% visible
METAR LIRS 252355Z 02005KT CAVOK 21/18 Q1005 RMK SKC VIS MIN 9999 WIND THR03 04006KT WIND THR21 04005KT BLU

Get Severe Weather Alerts

Thanks for signing up!

Be on the lookout for a verification email in your inbox.

You'll start receiving the daily forecast at 6 AM.

×

10-Day Weather Forecast

×

Almanac

Astronomy

Jul. 26, 2017 Rise Set
Actual Time
Civil Twilight
Nautical Twilight
Astronomical Twilight
Moon
Length of Visible Light
Length of Day
Tomorrow will be .
, % of the Moon is Illuminated

Today's Extremes

Country Highs Country Lows

Community

WunderPhotos

Category 6

Welcome to Category 6. This is the collective home for Weather Underground's featured writeups by Dr. Jeff Masters (right), Bob Henson (left), Chris Burt, and other regular contributors.

Nearby

Air Quality

  Air Quality AQ Index Pollutant
Not available.

Snow Depth

Station Depth Elevation

Earthquake Activity

City Distance Mag. Time & Date
Minimum magnitude displayed is 2.5.

Coastal Water Temperatures

Place Temperature

Stations

Nearby Weather Stations

Station Location Temp. Windchill Dew Point Humidity Wind Precip. Elev Updated Type